地図

経路データ

SID SEASON NUMBER BASIN SUBBASIN NAME ISO_TIME NATURE LAT LON WMO_WIND WMO_PRES WMO_AGENCY TRACK_TYPE DIST2LAND LANDFALL IFLAG USA_AGENCY USA_ATCF_ID USA_LAT USA_LON USA_RECORD USA_STATUS USA_WIND USA_PRES USA_SSHS USA_R34_NE USA_R34_SE USA_R34_SW USA_R34_NW USA_R50_NE USA_R50_SE USA_R50_SW USA_R50_NW USA_R64_NE USA_R64_SE USA_R64_SW USA_R64_NW USA_POCI USA_ROCI USA_RMW USA_EYE TOKYO_LAT TOKYO_LON TOKYO_GRADE TOKYO_WIND TOKYO_PRES TOKYO_R50_DIR TOKYO_R50_LONG TOKYO_R50_SHORT TOKYO_R30_DIR TOKYO_R30_LONG TOKYO_R30_SHORT TOKYO_LAND CMA_LAT CMA_LON CMA_CAT CMA_WIND CMA_PRES HKO_LAT HKO_LON HKO_CAT HKO_WIND HKO_PRES NEWDELHI_LAT NEWDELHI_LON NEWDELHI_GRADE NEWDELHI_WIND NEWDELHI_PRES NEWDELHI_CI NEWDELHI_DP NEWDELHI_POCI REUNION_LAT REUNION_LON REUNION_TYPE REUNION_WIND REUNION_PRES REUNION_TNUM REUNION_CI REUNION_RMW REUNION_R34_NE REUNION_R34_SE REUNION_R34_SW REUNION_R34_NW REUNION_R50_NE REUNION_R50_SE REUNION_R50_SW REUNION_R50_NW REUNION_R64_NE REUNION_R64_SE REUNION_R64_SW REUNION_R64_NW BOM_LAT BOM_LON BOM_TYPE BOM_WIND BOM_PRES BOM_TNUM BOM_CI BOM_RMW BOM_R34_NE BOM_R34_SE BOM_R34_SW BOM_R34_NW BOM_R50_NE BOM_R50_SE BOM_R50_SW BOM_R50_NW BOM_R64_NE BOM_R64_SE BOM_R64_SW BOM_R64_NW BOM_ROCI BOM_POCI BOM_EYE BOM_POS_METHOD BOM_PRES_METHOD NADI_LAT NADI_LON NADI_CAT NADI_WIND NADI_PRES WELLINGTON_LAT WELLINGTON_LON WELLINGTON_WIND WELLINGTON_PRES DS824_LAT DS824_LON DS824_STAGE DS824_WIND DS824_PRES TD9636_LAT TD9636_LON TD9636_STAGE TD9636_WIND TD9636_PRES TD9635_LAT TD9635_LON TD9635_WIND TD9635_PRES TD9635_ROCI NEUMANN_LAT NEUMANN_LON NEUMANN_CLASS NEUMANN_WIND NEUMANN_PRES MLC_LAT MLC_LON MLC_CLASS MLC_WIND MLC_PRES USA_GUST BOM_GUST BOM_GUST_PER REUNION_GUST REUNION_GUST_PER USA_SEAHGT USA_SEARAD_NE USA_SEARAD_SE USA_SEARAD_SW USA_SEARAD_NW STORM_SPEED STORM_DIR
1967287N27289 1967 124 NA NA NOT_NAMED 1967-10-14 06:00:00 SS 27.0000 -71.5000 40 1002 hurdat_atl main 665 665 O_____________ hurdat_atl AL231967 27.0000 -71.5000 SS 40 1002 -2 16 7
1967287N27289 1967 124 NA NA NOT_NAMED 1967-10-14 09:00:00 SS 27.7950 -71.3876 main 722 722 P_____________ AL231967 27.7950 -71.3876 SS 40 -2 15 10
1967287N27289 1967 124 NA NA NOT_NAMED 1967-10-14 12:00:00 SS 28.5000 -71.2000 40 hurdat_atl main 773 773 O_____________ hurdat_atl AL231967 28.5000 -71.2000 SS 40 -2 13 19
1967287N27289 1967 124 NA NA NOT_NAMED 1967-10-14 15:00:00 SS 29.0525 -70.8874 main 817 808 P_____________ AL231967 29.0525 -70.8874 SS 40 -2 12 31
1967287N27289 1967 124 NA NA NOT_NAMED 1967-10-14 18:00:00 SS 29.5000 -70.5000 40 hurdat_atl main 808 796 O_____________ hurdat_atl AL231967 29.5000 -70.5000 SS 40 -2 13 38
1967287N27289 1967 124 NA NA NOT_NAMED 1967-10-14 21:00:00 SS 30.0502 -69.9879 main 796 794 P_____________ AL231967 30.0502 -69.9879 SS 40 -2 11 41
1967287N27289 1967 124 NA NA NOT_NAMED 1967-10-15 00:00:00 SS 30.3000 -69.7000 40 hurdat_atl main 802 802 O_____________ hurdat_atl AL231967 30.3000 -69.7000 SS 40 -2 1 0
1967287N27289 1967 124 NA NA NOT_NAMED 1967-10-15 03:00:00 SS 29.9127 -69.9810 main 811 811 P_____________ AL231967 29.9127 -69.9810 SS 40 -2 12 215
1967287N27289 1967 124 NA NA NOT_NAMED 1967-10-15 06:00:00 SS 29.3000 -70.5000 40 hurdat_atl main 825 820 O_____________ hurdat_atl AL231967 29.3000 -70.5000 SS 40 -2 13 218
1967287N27289 1967 124 NA NA NOT_NAMED 1967-10-15 09:00:00 SS 28.8676 -70.9302 main 820 770 P_____________ AL231967 28.8676 -70.9302 SS 40 -2 10 225
1967287N27289 1967 124 NA NA NOT_NAMED 1967-10-15 12:00:00 SS 28.6000 -71.3000 40 hurdat_atl main 770 753 O_____________ hurdat_atl AL231967 28.6000 -71.3000 SS 40 -2 6 243
1967287N27289 1967 124 NA NA NOT_NAMED 1967-10-15 15:00:00 SS 28.5899 -71.5519 main 744 742 P_____________ AL231967 28.5899 -71.5519 SS 42 -2 4 286
1967287N27289 1967 124 NA NA NOT_NAMED 1967-10-15 18:00:00 SS 28.7000 -71.7000 45 hurdat_atl main 742 733 O_____________ hurdat_atl AL231967 28.7000 -71.7000 SS 45 -2 2 307
1967287N27289 1967 124 NA NA NOT_NAMED 1967-10-15 21:00:00 SS 28.7349 -71.7726 main 733 733 P_____________ AL231967 28.7349 -71.7726 SS 45 -2 1 320
1967287N27289 1967 124 NA NA NOT_NAMED 1967-10-16 00:00:00 SS 28.8000 -71.8000 45 hurdat_atl main 739 739 O_____________ hurdat_atl AL231967 28.8000 -71.8000 SS 45 -2 2 343
1967287N27289 1967 124 NA NA NOT_NAMED 1967-10-16 03:00:00 SS 28.9350 -71.8425 main 745 744 P_____________ AL231967 28.9350 -71.8425 SS 45 -2 3 344
1967287N27289 1967 124 NA NA NOT_NAMED 1967-10-16 06:00:00 SS 29.1000 -71.9000 45 hurdat_atl main 750 745 O_____________ hurdat_atl AL231967 29.1000 -71.9000 SS 45 -2 3 339
1967287N27289 1967 124 NA NA NOT_NAMED 1967-10-16 09:00:00 SS 29.2425 -71.9776 main 745 721 P_____________ AL231967 29.2425 -71.9776 SS 45 -2 3 330
1967287N27289 1967 124 NA NA NOT_NAMED 1967-10-16 12:00:00 SS 29.4000 -72.1000 45 hurdat_atl main 721 692 O_____________ hurdat_atl AL231967 29.4000 -72.1000 SS 45 -2 4 321
1967287N27289 1967 124 NA NA NOT_NAMED 1967-10-16 15:00:00 SS 29.5625 -72.2777 main 692 662 P_____________ AL231967 29.5625 -72.2777 SS 42 -2 5 319
1967287N27289 1967 124 NA NA NOT_NAMED 1967-10-16 18:00:00 SS 29.8000 -72.5000 40 hurdat_atl main 662 624 O_____________ hurdat_atl AL231967 29.8000 -72.5000 SS 40 -2 7 324
1967287N27289 1967 124 NA NA NOT_NAMED 1967-10-16 21:00:00 SS 30.1250 -72.7428 main 624 562 P_____________ AL231967 30.1250 -72.7428 SS 37 -2 9 332
1967287N27289 1967 124 NA NA NOT_NAMED 1967-10-17 00:00:00 SS 30.6000 -73.0000 35 hurdat_atl main 562 490 O_____________ hurdat_atl AL231967 30.6000 -73.0000 SS 35 -2 12 338
1967287N27289 1967 124 NA NA NOT_NAMED 1967-10-17 03:00:00 SS 31.2476 -73.2794 main 490 409 P_____________ AL231967 31.2476 -73.2794 SS 35 -2 15 343
1967287N27289 1967 124 NA NA NOT_NAMED 1967-10-17 06:00:00 SS 32.0000 -73.5000 35 hurdat_atl main 409 348 O_____________ hurdat_atl AL231967 32.0000 -73.5000 SS 35 -2 15 349
1967287N27289 1967 124 NA NA NOT_NAMED 1967-10-17 09:00:00 SS 32.7423 -73.6319 main 348 292 P_____________ AL231967 32.7423 -73.6319 SS 35 -2 15 357
1967287N27289 1967 124 NA NA NOT_NAMED 1967-10-17 12:00:00 SS 33.5000 -73.6000 35 hurdat_atl main 292 261 O_____________ hurdat_atl AL231967 33.5000 -73.6000 SS 35 -2 15 8
1967287N27289 1967 124 NA NA NOT_NAMED 1967-10-17 15:00:00 SS 34.2499 -73.3825 main 261 239 P_____________ AL231967 34.2499 -73.3825 SS 37 -2 16 18
1967287N27289 1967 124 NA NA NOT_NAMED 1967-10-17 18:00:00 TS 35.0000 -73.0000 40 hurdat_atl main 243 239 O_____________ hurdat_atl AL231967 35.0000 -73.0000 TS 40 0 16 25
1967287N27289 1967 124 NA NA NOT_NAMED 1967-10-17 21:00:00 TS 35.7121 -72.5652 main 261 261 P_____________ AL231967 35.7121 -72.5652 TS 45 0 17 28
1967287N27289 1967 124 NA NA NOT_NAMED 1967-10-18 00:00:00 TS 36.5000 -72.0000 50 hurdat_atl main 323 323 O_____________ hurdat_atl AL231967 36.5000 -72.0000 TS 50 0 19 31
1967287N27289 1967 124 NA NA NOT_NAMED 1967-10-18 03:00:00 TS 37.3638 -71.3548 main 339 317 P_____________ AL231967 37.3638 -71.3548 TS 50 0 23 31
1967287N27289 1967 124 NA NA NOT_NAMED 1967-10-18 06:00:00 TS 38.5000 -70.5000 50 hurdat_atl main 312 206 O_____________ hurdat_atl AL231967 38.5000 -70.5000 TS 50 0 31 31
1967287N27289 1967 124 NA NA NOT_NAMED 1967-10-18 09:00:00 TS 40.0239 -69.3257 main 198 136 P_____________ AL231967 40.0239 -69.3257 TS 47 0 38 30
1967287N27289 1967 124 NA NA NOT_NAMED 1967-10-18 12:00:00 ET 41.8000 -68.0000 45 hurdat_atl main 165 41 O_____________ hurdat_atl AL231967 41.8000 -68.0000 EX 45 -4 43 28
1967287N27289 1967 124 NA NA NOT_NAMED 1967-10-18 15:00:00 ET 43.7860 -66.6490 main 31 0 P_____________ AL231967 43.7860 -66.6490 EX 42 -4 41 26
1967287N27289 1967 124 NA NA NOT_NAMED 1967-10-18 18:00:00 ET 45.5000 -65.5000 40 hurdat_atl main 0 0 O_____________ hurdat_atl AL231967 45.5000 -65.5000 EX 40 -4 30 25
1967287N27289 1967 124 NA NA NOT_NAMED 1967-10-18 21:00:00 ET 46.4497 -64.8375 main 0 0 P_____________ AL231967 46.4497 -64.8375 EX 40 -4 16 25
1967287N27289 1967 124 NA NA NOT_NAMED 1967-10-19 00:00:00 ET 47.0000 -64.5000 40 hurdat_atl main 25 25 O_____________ hurdat_atl AL231967 47.0000 -64.5000 EX 40 -4 11 21
1967287N27289 1967 124 NA NA NOT_NAMED 1967-10-19 03:00:00 ET 47.4961 -64.2428 main 43 37 P_____________ AL231967 47.4961 -64.2428 EX 37 -4 11 19
1967287N27289 1967 124 NA NA NOT_NAMED 1967-10-19 06:00:00 ET 48.0000 -64.0000 35 hurdat_atl main 49 O_____________ hurdat_atl AL231967 48.0000 -64.0000 EX 35 -4 11 18

IBTrACS Databaseについて

本データベースは、米国NOAAが公開する1842年以降の世界の熱帯低気圧のベストトラックデータアーカイブInternational Best Track Archive for Climate Stewardship (IBTrACS)を、ウェブで閲覧しやすい形式に変換したものです。

最終更新日:2022-11-16